Time;durP1;ratioP1;P1;durP2;ratioP2;P2;SDS_P1;SDS_P2;PMS_P1;PMS_P2;Temp;Humidity;BMP_temperature;BMP_pressure;BME280_temperature;BME280_humidity;BME280_pressure;Samples;Min_cycle;Max_cycle;Signal;HPM_P1;HPM_P2
2022/09/15 00:00:11;;;;;;;969.28;905.05;;;;;;;16.71;67.70;99829.59;690069;28;21550;-64
2022/09/15 00:00:32;;;;;;;962.80;898.70;;;;;;;16.72;67.79;99830.41;689279;28;45263;-64
2022/09/15 00:00:53;;;;;;;959.40;895.38;;;;;;;16.72;67.50;99827.69;689968;28;22380;-64
2022/09/15 00:01:16;;;;;;;968.95;904.65;;;;;;;16.73;67.67;99834.81;690107;28;22361;-64
2022/09/15 00:01:37;;;;;;;974.85;910.33;;;;;;;16.73;67.66;99824.72;688384;28;69480;-64
2022/09/15 00:01:58;;;;;;;969.47;905.28;;;;;;;16.74;67.70;99820.13;689216;28;23383;-64
2022/09/15 00:02:19;;;;;;;964.30;900.17;;;;;;;16.74;67.64;99820.13;687356;28;22406;-64
2022/09/15 00:02:41;;;;;;;962.08;897.97;;;;;;;16.74;67.71;99825.56;687389;28;22422;-64
2022/09/15 00:03:03;;;;;;;961.25;897.25;;;;;;;16.75;67.55;99824.47;688818;28;46356;-64
2022/09/15 00:03:24;;;;;;;961.08;897.08;;;;;;;16.74;67.45;99825.56;689243;28;46346;-64
2022/09/15 00:03:45;;;;;;;963.50;899.35;;;;;;;16.74;67.54;99829.13;689998;28;22321;-64
2022/09/15 00:04:07;;;;;;;979.05;913.17;;;;;;;16.73;67.43;99827.44;687936;28;21529;-64
2022/09/15 00:04:29;;;;;;;973.15;908.05;;;;;;;16.75;67.50;99829.94;689232;28;43324;-64
2022/09/15 00:04:50;;;;;;;967.95;903.78;;;;;;;16.73;67.57;99824.72;689330;28;45210;-64
2022/09/15 00:05:12;;;;;;;970.33;905.97;;;;;;;16.72;67.49;99823.09;690122;28;22416;-64
2022/09/15 00:05:33;;;;;;;963.33;899.15;;;;;;;16.74;67.66;99825.56;689244;28;45207;-64
2022/09/15 00:05:55;;;;;;;960.25;896.08;;;;;;;16.74;67.69;99831.03;689329;28;21611;-64
2022/09/15 00:06:17;;;;;;;960.95;896.90;;;;;;;16.71;67.47;99829.59;686808;28;46357;-64
2022/09/15 00:06:38;;;;;;;964.85;900.70;;;;;;;16.70;67.58;99830.66;686615;28;46381;-64
2022/09/15 00:06:59;;;;;;;960.63;896.33;;;;;;;16.71;67.45;99828.78;687552;28;22332;-64
2022/09/15 00:07:21;;;;;;;968.53;903.85;;;;;;;16.70;67.72;99825.19;689915;28;23776;-64
2022/09/15 00:07:42;;;;;;;969.45;905.03;;;;;;;16.70;67.67;99822.47;690714;28;915;-64
2022/09/15 00:08:03;;;;;;;961.47;897.47;;;;;;;16.69;67.64;99823.56;690087;28;22477;-66
2022/09/15 00:08:25;;;;;;;959.35;895.42;;;;;;;16.68;67.63;99827.34;689199;28;46222;-64
2022/09/15 00:08:47;;;;;;;962.65;898.50;;;;;;;16.69;67.46;99833.63;690083;28;21322;-64
2022/09/15 00:09:08;;;;;;;973.00;908.53;;;;;;;16.68;67.66;99832.78;689012;28;46216;-64
2022/09/15 00:09:29;;;;;;;965.47;901.25;;;;;;;16.66;67.67;99829.50;689997;28;21641;-64
2022/09/15 00:09:51;;;;;;;958.20;894.30;;;;;;;16.70;67.88;99832.56;689341;28;45393;-64
2022/09/15 00:10:12;;;;;;;963.30;899.22;;;;;;;16.70;67.65;99827.09;686286;28;23495;-64
2022/09/15 00:10:34;;;;;;;963.10;899.03;;;;;;;16.69;67.84;99829.00;687154;28;22400;-65
2022/09/15 00:10:57;;;;;;;961.65;897.72;;;;;;;16.70;67.58;99833.38;686441;28;46319;-63
2022/09/15 00:11:21;;;;;;;966.42;902.22;;;;;;;16.71;67.80;99835.03;685462;28;67463;-64
2022/09/15 00:11:42;;;;;;;967.10;902.97;;;;;;;16.72;67.57;99831.25;684687;28;92236;-65
2022/09/15 00:12:05;;;;;;;956.50;892.78;;;;;;;16.73;67.68;99834.81;686531;28;23483;-65
2022/09/15 00:12:26;;;;;;;955.00;891.25;;;;;;;16.72;67.83;99823.09;685646;28;68315;-64
2022/09/15 00:12:47;;;;;;;957.10;893.45;;;;;;;16.72;67.83;99827.69;686493;28;46268;-64
2022/09/15 00:13:09;;;;;;;960.80;896.97;;;;;;;16.72;67.59;99827.69;688532;28;21465;-64
2022/09/15 00:13:32;;;;;;;968.28;904.15;;;;;;;16.72;67.53;99824.97;689759;28;23458;-65
2022/09/15 00:13:55;;;;;;;964.83;900.85;;;;;;;16.72;67.70;99827.69;685689;28;92167;-65
2022/09/15 00:14:17;;;;;;;959.45;895.58;;;;;;;16.72;67.41;99827.69;687803;28;69029;-65
2022/09/15 00:14:38;;;;;;;961.20;897.20;;;;;;;16.72;67.77;99827.69;690067;28;22412;-65
2022/09/15 00:14:59;;;;;;;970.95;906.67;;;;;;;16.71;67.68;99826.88;690101;28;22363;-64
2022/09/15 00:15:22;;;;;;;964.53;900.45;;;;;;;16.72;67.94;99825.81;686511;28;46348;-65
2022/09/15 00:15:44;;;;;;;956.92;893.00;;;;;;;16.72;67.68;99825.81;686334;28;69783;-65
2022/09/15 00:16:06;;;;;;;967.85;903.65;;;;;;;16.73;67.77;99827.44;689488;28;23483;-64
2022/09/15 00:16:29;;;;;;;966.25;902.15;;;;;;;16.72;67.75;99827.69;688203;28;46392;-64
2022/09/15 00:16:51;;;;;;;973.83;909.35;;;;;;;16.71;67.58;99826.88;685191;28;92283;-64
2022/09/15 00:17:13;;;;;;;966.90;902.42;;;;;;;16.72;67.51;99819.50;686391;28;46334;-64
2022/09/15 00:17:34;;;;;;;958.17;894.17;;;;;;;16.72;67.65;99820.34;687854;28;21557;-65
2022/09/15 00:17:55;;;;;;;963.47;899.38;;;;;;;16.72;67.52;99825.81;690009;28;23469;-64
2022/09/15 00:18:17;;;;;;;958.30;894.42;;;;;;;16.73;67.71;99824.72;690028;28;22416;-65
2022/09/15 00:18:39;;;;;;;966.40;902.15;;;;;;;16.75;67.67;99819.03;688446;28;69239;-65
2022/09/15 00:19:00;;;;;;;960.22;896.28;;;;;;;16.74;67.55;99815.47;690067;28;21536;-65
2022/09/15 00:19:21;;;;;;;960.47;896.47;;;;;;;16.74;67.49;99820.94;688989;28;46422;-64
2022/09/15 00:19:43;;;;;;;965.60;901.40;;;;;;;16.75;67.74;99816.31;689172;28;23362;-64
2022/09/15 00:20:06;;;;;;;966.67;902.47;;;;;;;16.72;67.83;99814.91;689299;28;46304;-64
2022/09/15 00:20:27;;;;;;;960.95;896.97;;;;;;;16.74;67.70;99820.13;689205;28;44375;-65
2022/09/15 00:20:48;;;;;;;960.15;896.05;;;;;;;16.72;67.49;99814.91;688655;28;22452;-65
2022/09/15 00:21:12;;;;;;;963.53;899.45;;;;;;;16.72;67.57;99816.78;686684;28;45008;-65
2022/09/15 00:21:35;;;;;;;958.50;894.58;;;;;;;16.72;67.78;99816.78;687513;28;92209;-65
2022/09/15 00:21:56;;;;;;;961.50;897.30;;;;;;;16.72;67.68;99819.50;685128;28;69236;-64
2022/09/15 00:22:19;;;;;;;964.30;900.15;;;;;;;16.69;67.44;99815.38;689507;28;22164;-64
2022/09/15 00:22:40;;;;;;;961.55;897.38;;;;;;;16.70;67.69;99821.66;688848;28;44384;-65
2022/09/15 00:23:01;;;;;;;956.08;892.25;;;;;;;16.70;67.58;99813.47;689070;28;21509;-65
2022/09/15 00:23:22;;;;;;;955.72;891.95;;;;;;;16.69;67.65;99812.66;689238;28;47502;-64
2022/09/15 00:23:44;;;;;;;961.30;897.38;;;;;;;16.69;68.11;99809.09;689929;28;23602;-64
2022/09/15 00:24:06;;;;;;;967.35;903.10;;;;;;;16.68;67.89;99810.16;689145;28;46265;-65
2022/09/15 00:24:28;;;;;;;972.85;908.42;;;;;;;16.67;67.70;99817.50;688516;28;46514;-65
2022/09/15 00:24:49;;;;;;;970.15;905.80;;;;;;;16.67;67.79;99811.22;687790;28;24457;-65
2022/09/15 00:25:10;;;;;;;953.97;890.15;;;;;;;16.66;67.77;99817.75;690122;28;21557;-65
2022/09/15 00:25:40;;;;;;;956.97;893.00;;;;;;;16.65;67.97;99811.47;688807;28;61494;-64
2022/09/15 00:26:06;;;;;;;968.85;904.55;;;;;;;16.64;67.86;99814.44;686007;28;138133;-65
2022/09/15 00:26:28;;;;;;;964.65;900.45;;;;;;;16.63;68.17;99816.34;683341;28;137762;-65
2022/09/15 00:26:50;;;;;;;964.22;900.17;;;;;;;16.64;68.06;99817.16;685785;28;46212;-64
2022/09/15 00:27:11;;;;;;;967.63;903.28;;;;;;;16.63;68.13;99812.75;682813;28;46318;-65
2022/09/15 00:27:32;;;;;;;970.97;906.67;;;;;;;16.63;67.85;99810.03;684413;28;23422;-66
2022/09/15 00:27:54;;;;;;;963.33;899.35;;;;;;;16.60;68.13;99808.63;686249;28;22482;-64
2022/09/15 00:28:17;;;;;;;963.75;899.75;;;;;;;16.62;67.96;99811.94;686348;28;44352;-64
2022/09/15 00:28:40;;;;;;;962.75;898.72;;;;;;;16.63;68.12;99812.75;685555;28;67495;-65
2022/09/15 00:29:02;;;;;;;967.65;903.45;;;;;;;16.63;67.95;99807.31;686462;28;69410;-65
2022/09/15 00:29:24;;;;;;;951.53;887.83;;;;;;;16.62;68.12;99808.41;689035;28;46371;-65
2022/09/15 00:29:45;;;;;;;956.38;892.47;;;;;;;16.63;68.01;99812.75;688627;28;46376;-65
2022/09/15 00:30:07;;;;;;;965.90;901.80;;;;;;;16.63;67.91;99808.16;690065;28;22390;-65
2022/09/15 00:30:28;;;;;;;966.80;902.58;;;;;;;16.64;68.11;99808.97;689141;28;46322;-65
2022/09/15 00:30:52;;;;;;;964.78;900.60;;;;;;;16.64;67.96;99811.72;690035;28;24383;-65
2022/09/15 00:31:15;;;;;;;959.17;895.20;;;;;;;16.64;68.03;99806.25;687658;28;92201;-64
2022/09/15 00:31:36;;;;;;;965.67;901.45;;;;;;;16.62;68.23;99805.69;688380;28;69417;-64
2022/09/15 00:31:57;;;;;;;966.83;902.65;;;;;;;16.63;68.30;99813.63;689207;28;21532;-64
2022/09/15 00:32:20;;;;;;;964.38;900.17;;;;;;;16.63;68.15;99810.03;684341;28;19761;-65
2022/09/15 00:32:41;;;;;;;958.10;894.05;;;;;;;16.63;68.15;99810.03;683995;28;69395;-64
2022/09/15 00:33:02;;;;;;;957.38;893.42;;;;;;;16.64;68.02;99806.25;687127;28;21519;-64
2022/09/15 00:33:23;;;;;;;963.22;899.13;;;;;;;16.62;68.04;99806.50;687101;28;22463;-64
2022/09/15 00:33:45;;;;;;;972.42;908.00;;;;;;;16.62;68.22;99811.94;685810;28;22391;-65
2022/09/15 00:34:07;;;;;;;972.38;908.00;;;;;;;16.62;68.13;99808.41;684920;28;44382;-64
2022/09/15 00:34:28;;;;;;;971.15;906.75;;;;;;;16.61;68.16;99807.56;689179;28;45241;-65
2022/09/15 00:34:50;;;;;;;959.28;895.22;;;;;;;16.63;68.28;99810.03;689961;28;22127;-65
2022/09/15 00:35:11;;;;;;;954.35;890.55;;;;;;;16.61;68.22;99810.28;689212;28;46326;-64
2022/09/15 00:35:35;;;;;;;965.22;901.05;;;;;;;16.63;68.25;99812.75;689973;28;22453;-64
2022/09/15 00:36:00;;;;;;;961.95;897.85;;;;;;;16.61;68.14;99810.28;687530;28;92271;-65
2022/09/15 00:36:24;;;;;;;962.60;898.50;;;;;;;16.60;68.15;99813.25;685964;28;138369;-65
2022/09/15 00:36:45;;;;;;;964.05;899.92;;;;;;;16.59;68.14;99806.97;687520;28;92225;-64
2022/09/15 00:37:06;;;;;;;969.63;905.03;;;;;;;16.57;68.26;99804.47;688115;28;43602;-64
2022/09/15 00:37:27;;;;;;;956.05;892.10;;;;;;;16.57;68.24;99807.22;689896;28;21575;-64
2022/09/15 00:37:48;;;;;;;961.35;897.28;;;;;;;16.57;68.42;99811.84;689803;28;22424;-64
2022/09/15 00:38:12;;;;;;;955.88;892.03;;;;;;;16.55;68.43;99809.34;690159;28;21341;-64
2022/09/15 00:38:34;;;;;;;964.95;900.70;;;;;;;16.55;68.31;99814.81;687457;28;90617;-64
2022/09/15 00:38:56;;;;;;;973.20;908.70;;;;;;;16.53;68.23;99808.75;689076;28;44368;-64
2022/09/15 00:39:17;;;;;;;956.70;892.85;;;;;;;16.53;68.42;99811.47;689059;28;44124;-64
2022/09/15 00:39:38;;;;;;;964.33;900.20;;;;;;;16.52;68.47;99815.28;690063;28;22398;-64
2022/09/15 00:40:01;;;;;;;959.13;895.25;;;;;;;16.50;68.56;99811.94;689984;28;21525;-69
2022/09/15 00:40:22;;;;;;;967.80;903.53;;;;;;;16.50;68.48;99809.22;689097;28;46343;-64
2022/09/15 00:40:44;;;;;;;975.33;910.83;;;;;;;16.50;68.47;99808.41;690036;28;22463;-64
2022/09/15 00:41:07;;;;;;;956.85;893.05;;;;;;;16.49;68.45;99810.31;689629;28;34038;-64
2022/09/15 00:41:29;;;;;;;957.90;894.10;;;;;;;16.49;68.53;99813.03;688421;28;67462;-64
2022/09/15 00:41:51;;;;;;;960.58;896.65;;;;;;;16.48;68.75;99816.00;688453;28;44395;-64
2022/09/15 00:42:14;;;;;;;975.10;910.65;;;;;;;16.46;68.63;99805.34;689192;28;46220;-64
2022/09/15 00:42:35;;;;;;;967.47;903.45;;;;;;;16.45;68.66;99811.84;688342;28;69637;-68
2022/09/15 00:42:56;;;;;;;948.50;885.00;;;;;;;16.44;68.69;99809.34;689855;28;22387;-64
2022/09/15 00:43:21;;;;;;;951.60;887.92;;;;;;;16.42;68.68;99803.31;686688;28;46299;-64
2022/09/15 00:43:50;;;;;;;953.97;890.20;;;;;;;16.40;69.00;99803.56;684535;28;115154;-65
2022/09/15 00:44:51;;;;;;;960.58;896.58;;;;;;;16.38;68.92;99809.25;684553;28;138887;-64
2022/09/15 00:45:16;;;;;;;962.10;898.03;;;;;;;16.37;68.95;99812.22;684847;28;135992;-64
2022/09/15 00:45:37;;;;;;;959.50;895.60;;;;;;;16.34;69.01;99812.69;686856;28;115277;-65
2022/09/15 00:45:59;;;;;;;959.85;895.85;;;;;;;16.36;69.20;99805.09;686521;28;45842;-64
2022/09/15 00:46:22;;;;;;;958.67;894.63;;;;;;;16.34;69.12;99815.41;686856;28;22038;-64
2022/09/15 00:46:48;;;;;;;960.45;896.35;;;;;;;16.33;69.02;99814.59;686446;28;36287;-64
2022/09/15 00:47:09;;;;;;;957.28;893.03;;;;;;;16.32;69.08;99812.09;682916;28;112303;-64
2022/09/15 00:47:34;;;;;;;951.30;887.47;;;;;;;16.30;69.07;99812.34;687047;28;23491;-64
2022/09/15 00:47:55;;;;;;;957.60;893.67;;;;;;;16.30;69.21;99822.41;683930;28;137438;-64
2022/09/15 00:48:21;;;;;;;960.47;896.38;;;;;;;16.25;69.22;99809.47;689998;28;22405;-65
2022/09/15 00:48:45;;;;;;;957.85;893.85;;;;;;;16.27;69.69;99814.69;686719;28;114925;-65
2022/09/15 00:49:10;;;;;;;962.40;898.33;;;;;;;16.27;69.47;99815.53;686897;28;115078;-64
2022/09/15 00:49:33;;;;;;;967.53;903.08;;;;;;;16.25;69.62;99812.22;686025;28;116014;-65
2022/09/15 00:49:57;;;;;;;957.20;893.10;;;;;;;16.24;69.58;99816.00;685704;28;67482;-64
2022/09/15 00:50:20;;;;;;;964.78;900.55;;;;;;;16.23;69.77;99813.53;684031;28;113559;-64
2022/09/15 00:50:46;;;;;;;966.38;902.00;;;;;;;16.23;69.65;99817.06;685556;28;69411;-64
2022/09/15 00:51:09;;;;;;;967.90;903.60;;;;;;;16.21;69.89;99811.84;683790;28;115497;-64
2022/09/15 00:51:34;;;;;;;955.55;891.60;;;;;;;16.20;69.81;99818.38;685635;28;68268;-64
2022/09/15 00:51:59;;;;;;;953.58;889.67;;;;;;;16.21;69.99;99811.03;682450;28;138748;-65
2022/09/15 00:52:24;;;;;;;953.40;889.60;;;;;;;16.21;69.66;99820.03;684868;28;92259;-66
2022/09/15 00:52:48;;;;;;;951.38;887.63;;;;;;;16.20;69.99;99818.38;684690;28;86663;-65
2022/09/15 00:53:10;;;;;;;959.20;895.20;;;;;;;16.21;69.79;99821.94;684877;28;92086;-65
2022/09/15 00:53:32;;;;;;;954.65;890.80;;;;;;;16.21;69.73;99816.50;686457;28;46311;-65
2022/09/15 00:53:54;;;;;;;962.38;898.17;;;;;;;16.19;69.72;99816.72;682607;28;65724;-65
2022/09/15 00:54:18;;;;;;;956.35;892.45;;;;;;;16.18;69.71;99816.97;683577;28;45263;-65
2022/09/15 00:54:45;;;;;;;952.00;888.22;;;;;;;16.17;69.89;99821.56;682136;28;92953;-65
2022/09/15 00:55:09;;;;;;;957.53;893.58;;;;;;;16.17;69.95;99815.28;680467;28;139101;-65
2022/09/15 00:55:33;;;;;;;957.88;893.88;;;;;;;16.18;69.96;99822.41;681310;28;115097;-65
2022/09/15 00:55:55;;;;;;;960.35;896.22;;;;;;;16.19;70.26;99818.59;685130;28;69422;-65
2022/09/15 00:56:17;;;;;;;966.38;902.17;;;;;;;16.19;69.89;99819.44;685889;28;67197;-65
2022/09/15 00:56:41;;;;;;;957.88;894.03;;;;;;;16.20;70.01;99821.09;686672;28;46377;-65
2022/09/15 00:57:07;;;;;;;964.15;899.80;;;;;;;16.21;70.05;99825.47;683961;28;91949;-65
2022/09/15 00:57:31;;;;;;;950.78;887.20;;;;;;;16.21;70.02;99820.03;686117;28;137856;-65
2022/09/15 00:57:54;;;;;;;965.72;901.55;;;;;;;16.25;69.92;99825.81;687721;28;90334;-65
2022/09/15 00:58:21;;;;;;;950.72;887.10;;;;;;;16.24;69.87;99824.19;687062;28;69188;-65
2022/09/15 00:58:45;;;;;;;956.80;892.78;;;;;;;16.25;69.70;99819.56;683470;28;137805;-65
2022/09/15 00:59:11;;;;;;;966.55;902.35;;;;;;;16.23;69.88;99819.78;683843;28;114944;-65
2022/09/15 00:59:34;;;;;;;957.78;893.78;;;;;;;16.23;69.84;99833.41;683429;28;138499;-65
2022/09/15 00:59:56;;;;;;;958.10;894.13;;;;;;;16.23;69.97;99818.97;685841;28;69408;-65
2022/09/15 01:00:21;;;;;;;949.38;885.78;;;;;;;16.22;69.78;99820.84;686545;28;46317;-65
2022/09/15 01:00:46;;;;;;;952.08;888.30;;;;;;;16.21;69.85;99822.75;684921;28;90757;-65
2022/09/15 01:01:07;;;;;;;970.88;906.53;;;;;;;16.20;70.07;99814.81;683403;28;138558;-65
2022/09/15 01:01:30;;;;;;;965.50;901.30;;;;;;;16.19;69.88;99819.44;687246;28;22389;-65
2022/09/15 01:01:57;;;;;;;966.53;902.22;;;;;;;16.20;70.02;99825.72;685062;28;67231;-65
2022/09/15 01:02:21;;;;;;;957.30;893.33;;;;;;;16.20;69.95;99821.09;685281;28;159182;-65
2022/09/15 01:02:43;;;;;;;960.17;896.13;;;;;;;16.21;69.83;99821.94;686826;28;114848;-65
2022/09/15 01:03:05;;;;;;;971.88;906.47;;;;;;;16.19;69.88;99818.59;687461;28;44408;-65
2022/09/15 01:03:29;;;;;;;976.53;911.15;;;;;;;16.20;70.02;99823.00;689118;28;45260;-65
2022/09/15 01:03:50;;;;;;;973.30;908.75;;;;;;;16.22;69.77;99826.31;687521;28;92261;-65
2022/09/15 01:04:12;;;;;;;957.15;893.17;;;;;;;16.20;70.17;99821.09;689610;28;23405;-65
2022/09/15 01:04:33;;;;;;;959.25;895.17;;;;;;;16.21;70.16;99825.47;688298;28;44351;-65
2022/09/15 01:04:55;;;;;;;968.53;904.22;;;;;;;16.22;70.02;99823.56;689944;28;22191;-65
2022/09/15 01:05:19;;;;;;;969.63;905.20;;;;;;;16.23;70.26;99829.88;688440;28;45268;-65
2022/09/15 01:05:44;;;;;;;974.53;909.92;;;;;;;16.25;69.98;99825.00;684023;28;90313;-65
2022/09/15 01:06:09;;;;;;;965.53;901.42;;;;;;;16.25;70.05;99825.00;683948;28;116048;-65
2022/09/15 01:06:32;;;;;;;965.08;900.90;;;;;;;16.28;69.98;99824.53;683854;28;113510;-65
2022/09/15 01:06:58;;;;;;;974.88;910.20;;;;;;;16.27;70.07;99820.13;682021;28;67568;-65
2022/09/15 01:07:25;;;;;;;968.13;903.45;;;;;;;16.28;69.74;99825.34;680365;28;136393;-65
2022/09/15 01:07:51;;;;;;;956.95;892.92;;;;;;;16.29;69.68;99823.47;682288;28;161085;-65
2022/09/15 01:08:16;;;;;;;963.95;899.83;;;;;;;16.29;69.86;99826.19;684283;28;138567;-65
2022/09/15 01:08:41;;;;;;;959.05;894.88;;;;;;;16.28;69.50;99827.25;685747;28;114642;-65
2022/09/15 01:09:07;;;;;;;969.00;904.67;;;;;;;16.27;69.68;99823.72;686895;28;115276;-65
2022/09/15 01:09:31;;;;;;;960.63;896.58;;;;;;;16.26;69.66;99819.31;685867;28;137785;-64
2022/09/15 01:09:55;;;;;;;967.10;902.72;;;;;;;16.27;69.71;99828.31;687494;28;92194;-65
2022/09/15 01:10:21;;;;;;;957.17;893.28;;;;;;;16.25;69.90;99820.38;686452;28;113590;-65
2022/09/15 01:10:45;;;;;;;952.13;888.42;;;;;;;16.25;69.87;99820.38;686506;28;114791;-65
2022/09/15 01:11:06;;;;;;;953.33;889.63;;;;;;;16.25;69.81;99822.28;687667;28;90303;-65
2022/09/15 01:11:30;;;;;;;958.88;895.05;;;;;;;16.25;69.84;99820.38;687660;28;69348;-65
2022/09/15 01:11:51;;;;;;;963.22;899.22;;;;;;;16.21;69.67;99821.94;688197;28;44393;-64
2022/09/15 01:12:13;;;;;;;963.03;899.13;;;;;;;16.23;69.90;99813.53;689290;28;44440;-65
2022/09/15 01:12:35;;;;;;;962.60;898.60;;;;;;;16.21;69.98;99821.94;689798;28;23440;-65
2022/09/15 01:12:59;;;;;;;969.63;905.13;;;;;;;16.19;70.08;99816.72;688592;28;45239;-65
2022/09/15 01:13:21;;;;;;;969.83;905.42;;;;;;;16.19;69.98;99813.16;686666;28;114888;-64
2022/09/15 01:13:42;;;;;;;960.13;896.03;;;;;;;16.18;69.83;99817.78;690347;28;5059;-65
2022/09/15 01:14:04;;;;;;;959.53;895.47;;;;;;;16.19;70.16;99821.31;686460;28;46257;-65
2022/09/15 01:14:28;;;;;;;954.70;890.85;;;;;;;16.16;70.03;99814.47;688011;28;880;-64
2022/09/15 01:14:49;;;;;;;962.05;897.92;;;;;;;16.18;70.08;99814.25;681620;28;92253;-64
2022/09/15 01:15:10;;;;;;;971.10;906.70;;;;;;;16.16;69.75;99813.63;684468;28;22356;-65
2022/09/15 01:15:38;;;;;;;958.33;894.33;;;;;;;16.15;70.05;99820.97;683833;28;38129;-65
2022/09/15 01:16:07;;;;;;;963.95;899.85;;;;;;;16.14;69.96;99815.75;680331;28;137704;-65
2022/09/15 01:16:35;;;;;;;965.65;901.28;;;;;;;16.15;70.13;99812.81;682514;28;137912;-64
2022/09/15 01:17:02;;;;;;;963.28;898.88;;;;;;;16.12;70.54;99813.28;684678;28;136247;-64
2022/09/15 01:17:34;;;;;;;957.40;893.15;;;;;;;16.16;70.21;99821.78;685775;28;138391;-64
2022/09/15 01:18:03;;;;;;;952.92;889.00;;;;;;;16.14;70.44;99813.03;685887;28;137640;-64
2022/09/15 01:18:30;;;;;;;972.33;907.78;;;;;;;16.15;70.24;99812.81;682940;28;137366;-65
2022/09/15 01:18:58;;;;;;;960.47;896.42;;;;;;;16.14;70.15;99813.84;682515;28;138621;-64
2022/09/15 01:19:54;;;;;;;962.67;898.35;;;;;;;16.13;70.30;99817.66;682918;28;137930;-64
2022/09/15 01:21:00;;;;;;;953.85;890.00;;;;;;;16.10;70.44;99815.41;683976;28;137345;-64
2022/09/15 01:21:28;;;;;;;954.75;890.92;;;;;;;16.10;70.51;99815.41;686227;28;127606;-64
2022/09/15 01:21:50;;;;;;;960.35;896.35;;;;;;;16.09;70.26;99812.94;685163;28;137544;-64
2022/09/15 01:22:26;;;;;;;955.33;891.45;;;;;;;16.08;70.02;99813.97;689136;28;45407;-64
2022/09/15 01:22:59;;;;;;;953.40;889.67;;;;;;;16.06;70.29;99811.50;685888;28;137821;-64
2022/09/15 01:23:37;;;;;;;959.17;895.22;;;;;;;16.06;70.29;99814.22;685917;28;137401;-63
2022/09/15 01:24:20;;;;;;;961.95;897.85;;;;;;;16.06;70.66;99816.94;685227;28;160594;-63
2022/09/15 01:24:44;;;;;;;964.95;900.75;;;;;;;16.04;70.62;99813.63;685828;28;137488;-64
2022/09/15 01:25:08;;;;;;;960.05;896.05;;;;;;;16.04;70.67;99810.91;687542;28;92200;-64
2022/09/15 01:25:44;;;;;;;950.20;886.60;;;;;;;16.02;70.80;99818.50;688368;28;67237;-65
2022/09/15 01:26:33;;;;;;;960.13;896.28;;;;;;;16.02;70.81;99813.06;685948;28;137751;-65
2022/09/15 01:27:22;;;;;;;963.05;898.90;;;;;;;16.02;70.93;99813.06;681263;28;136006;-64
2022/09/15 01:27:57;;;;;;;958.65;894.55;;;;;;;16.01;70.81;99817.66;685845;28;137499;-65
2022/09/15 01:28:47;;;;;;;959.88;895.47;;;;;;;15.98;70.70;99812.66;686248;28;124445;-65
2022/09/15 01:29:48;;;;;;;957.42;893.10;;;;;;;16.03;70.92;99822.84;686357;28;128145;-64
2022/09/15 01:30:14;;;;;;;957.83;893.92;;;;;;;16.05;70.68;99826.19;686019;28;135997;-64
2022/09/15 01:30:36;;;;;;;959.33;895.30;;;;;;;16.04;70.88;99821.81;685921;28;136659;-65
2022/09/15 01:31:00;;;;;;;955.67;891.83;;;;;;;16.04;70.62;99821.81;689192;28;44375;-65
2022/09/15 01:31:24;;;;;;;957.17;893.22;;;;;;;16.04;70.78;99824.53;687769;28;83262;-64
2022/09/15 01:33:27;;;;;;;959.42;895.42;;;;;;;16.07;70.80;99826.78;669308;29;136292;-64
2022/09/15 01:33:52;;;;;;;957.42;893.53;;;;;;;16.08;70.46;99838.50;669874;29;138108;-64
2022/09/15 01:34:19;;;;;;;954.80;890.90;;;;;;;16.06;70.44;99822.38;672227;29;62695;-64
2022/09/15 01:34:45;;;;;;;958.95;894.83;;;;;;;16.06;70.75;99827.00;671978;29;69333;-64
2022/09/15 01:35:12;;;;;;;963.22;899.03;;;;;;;16.03;70.44;99829.16;670334;29;136447;-65
2022/09/15 01:35:44;;;;;;;962.63;898.47;;;;;;;16.05;70.46;99834.38;672501;29;138444;-65
2022/09/15 01:36:10;;;;;;;964.53;900.33;;;;;;;16.01;70.42;99834.00;669919;29;134639;-65
2022/09/15 01:36:37;;;;;;;966.75;902.40;;;;;;;16.03;70.48;99831.03;669688;29;138108;-65
2022/09/15 01:37:03;;;;;;;962.65;898.20;;;;;;;15.98;70.72;99820.03;668557;29;136089;-64
2022/09/15 01:37:29;;;;;;;961.90;897.47;;;;;;;16.00;70.66;99826.91;669664;29;138094;-65
2022/09/15 01:37:55;;;;;;;958.17;894.08;;;;;;;16.01;70.93;99833.16;669221;29;137816;-64
2022/09/15 01:38:21;;;;;;;965.33;900.85;;;;;;;16.01;70.78;99833.16;670699;29;115041;-64
2022/09/15 01:38:50;;;;;;;958.33;894.22;;;;;;;16.02;70.88;99834.84;672275;29;138145;-64
2022/09/15 01:39:15;;;;;;;963.72;899.65;;;;;;;16.01;70.86;99830.44;672501;29;160875;-64
2022/09/15 01:39:39;;;;;;;955.22;891.42;;;;;;;16.01;71.03;99833.16;682873;28;113892;-64
2022/09/15 01:40:01;;;;;;;964.80;900.80;;;;;;;16.02;70.82;99826.66;687562;28;92265;-64
2022/09/15 01:40:25;;;;;;;960.20;896.40;;;;;;;16.01;70.92;99825.81;688960;28;46497;-64
2022/09/15 01:40:50;;;;;;;959.67;895.70;;;;;;;16.03;70.75;99825.59;687441;28;92273;-64
2022/09/15 01:41:15;;;;;;;957.42;893.53;;;;;;;16.02;70.84;99832.13;685105;28;136159;-64
2022/09/15 01:41:45;;;;;;;961.03;896.92;;;;;;;16.03;70.84;99828.31;686932;28;90328;-64
2022/09/15 01:42:09;;;;;;;966.92;902.60;;;;;;;16.02;70.81;99827.47;681186;28;180362;-65
2022/09/15 01:42:31;;;;;;;952.88;889.10;;;;;;;16.03;70.93;99837.31;685477;28;74210;-65
2022/09/15 01:42:54;;;;;;;960.40;896.25;;;;;;;16.03;70.74;99833.75;688151;28;46145;-64
2022/09/15 01:43:17;;;;;;;955.67;891.83;;;;;;;16.03;70.65;99833.75;685965;28;70316;-64
2022/09/15 01:43:43;;;;;;;955.70;891.75;;;;;;;16.00;70.65;99826.91;684392;28;90498;-64
2022/09/15 01:44:06;;;;;;;962.65;898.55;;;;;;;15.99;70.50;99825.22;684100;28;114844;-65
2022/09/15 01:44:32;;;;;;;956.90;892.97;;;;;;;16.01;70.68;99831.25;686819;28;69161;-65
2022/09/15 01:44:57;;;;;;;956.13;892.17;;;;;;;16.00;70.61;99826.91;685928;28;137233;-64
2022/09/15 01:45:22;;;;;;;964.03;899.83;;;;;;;16.01;70.86;99827.72;683285;28;113857;-65
2022/09/15 01:45:46;;;;;;;960.58;896.58;;;;;;;15.99;70.63;99825.22;683873;28;113662;-64
2022/09/15 01:46:08;;;;;;;966.45;902.17;;;;;;;15.99;70.59;99833.41;684564;28;92256;-64
2022/09/15 01:46:33;;;;;;;957.05;893.17;;;;;;;15.97;70.60;99831.97;685373;28;68647;-64
2022/09/15 01:46:57;;;;;;;961.97;897.80;;;;;;;15.97;70.73;99832.81;683183;28;92039;-64
2022/09/15 01:47:18;;;;;;;965.72;901.03;;;;;;;15.96;70.67;99827.59;686652;28;92080;-64
2022/09/15 01:47:40;;;;;;;967.13;902.78;;;;;;;15.97;70.79;99832.81;690240;28;13711;-64
2022/09/15 01:48:05;;;;;;;963.83;899.65;;;;;;;15.97;70.40;99823.78;689045;28;44145;-64
2022/09/15 01:48:27;;;;;;;958.40;894.40;;;;;;;15.98;70.99;99825.47;687373;28;92212;-65
2022/09/15 01:48:48;;;;;;;955.40;891.53;;;;;;;15.97;70.96;99826.53;689104;28;44075;-64
2022/09/15 01:49:11;;;;;;;958.22;894.22;;;;;;;15.94;70.58;99827.84;689074;28;47177;-64
2022/09/15 01:49:35;;;;;;;961.58;897.40;;;;;;;15.95;70.54;99832.19;688833;28;46331;-64
2022/09/15 01:50:00;;;;;;;958.70;894.72;;;;;;;15.94;70.59;99832.44;684534;28;94934;-64
2022/09/15 01:50:23;;;;;;;955.67;891.78;;;;;;;15.91;70.76;99828.31;684543;28;92408;-64
2022/09/15 01:50:47;;;;;;;958.33;894.33;;;;;;;15.94;70.89;99829.72;684975;28;69349;-64
2022/09/15 01:51:09;;;;;;;966.45;902.17;;;;;;;15.94;70.81;99836.00;684576;28;91924;-65
2022/09/15 01:51:32;;;;;;;963.80;899.53;;;;;;;15.94;70.59;99832.44;685381;28;69532;-64
2022/09/15 01:51:53;;;;;;;963.92;899.72;;;;;;;15.94;70.87;99835.16;686438;28;69141;-64